createdAt,value
2023-03-11T00:01:01.941Z,23.40
2023-03-11T00:04:05.957Z,22.60
2023-03-11T00:07:11.703Z,24.40
2023-03-11T00:10:19.160Z,25.00
2023-03-11T00:13:23.528Z,25.10
2023-03-11T00:16:27.547Z,26.00
2023-03-11T00:19:31.852Z,24.70
2023-03-11T00:22:35.881Z,20.60
2023-03-11T00:25:40.670Z,23.20
2023-03-11T00:28:44.585Z,22.10
2023-03-11T00:31:48.513Z,20.40
2023-03-11T00:34:52.451Z,21.00
2023-03-11T00:37:59.727Z,20.50
2023-03-11T00:41:03.818Z,18.60
2023-03-11T00:44:09.003Z,20.60
2023-03-11T00:47:13.128Z,18.60
2023-03-11T00:50:20.720Z,20.70
2023-03-11T00:53:24.838Z,21.00
2023-03-11T00:56:29.066Z,23.30
2023-03-11T00:59:35.432Z,19.90
2023-03-11T01:02:40.054Z,18.90
2023-03-11T01:05:44.079Z,20.20
2023-03-11T01:08:48.098Z,18.20
2023-03-11T01:11:52.084Z,19.10
2023-03-11T01:14:56.094Z,19.00
2023-03-11T01:18:00.873Z,16.40
2023-03-11T01:21:05.382Z,18.30
2023-03-11T01:24:09.818Z,19.40
2023-03-11T01:27:15.552Z,21.90
2023-03-11T01:30:22.459Z,18.30
2023-03-11T01:33:27.766Z,16.20
2023-03-11T01:36:31.735Z,17.90
2023-03-11T01:39:36.033Z,22.10
2023-03-11T01:42:40.095Z,19.40
2023-03-11T01:45:50.515Z,17.90
2023-03-11T01:49:02.597Z,22.80
2023-03-11T01:52:09.850Z,14.80
2023-03-11T01:55:20.848Z,18.20
2023-03-11T01:58:28.297Z,16.00
2023-03-11T02:01:33.209Z,20.00
2023-03-11T02:04:38.986Z,19.60
2023-03-11T02:07:42.993Z,17.90
2023-03-11T02:10:49.626Z,22.20
2023-03-11T02:13:58.997Z,18.80
2023-03-11T02:17:04.019Z,19.70
2023-03-11T02:20:39.921Z,17.30
2023-03-11T02:24:02.249Z,17.00
2023-03-11T02:27:09.461Z,19.50
2023-03-11T02:30:15.626Z,20.30
2023-03-11T02:33:21.684Z,18.30
2023-03-11T02:36:38.300Z,20.20
2023-03-11T02:39:45.710Z,16.60
2023-03-11T02:42:54.932Z,19.70
2023-03-11T02:45:59.943Z,18.30
2023-03-11T02:49:05.391Z,18.20
2023-03-11T02:52:10.623Z,19.70
2023-03-11T02:55:16.313Z,20.80
2023-03-11T02:58:20.445Z,20.90
2023-03-11T03:01:24.757Z,15.90
2023-03-11T03:04:29.147Z,17.50
2023-03-11T03:10:38.749Z,18.80
2023-03-11T03:13:42.869Z,17.90
2023-03-11T03:16:46.888Z,20.80
2023-03-11T03:19:51.103Z,16.60
2023-03-11T03:22:55.637Z,16.50
2023-03-11T03:26:05.684Z,18.20
2023-03-11T03:29:10.713Z,17.30
2023-03-11T03:32:14.871Z,18.60
2023-03-11T03:35:19.269Z,17.90
2023-03-11T03:38:36.702Z,18.60
2023-03-11T03:41:41.233Z,19.40
2023-03-11T03:44:45.505Z,14.20
2023-03-11T03:47:49.573Z,19.70
2023-03-11T03:50:54.606Z,19.90
2023-03-11T03:53:58.548Z,19.40
2023-03-11T03:57:03.131Z,19.30
2023-03-11T04:00:12.099Z,16.20
2023-03-11T04:03:18.711Z,14.60
2023-03-11T04:06:28.485Z,17.70
2023-03-11T04:09:40.127Z,18.50
2023-03-11T04:12:44.189Z,17.70
2023-03-11T04:15:49.368Z,17.70
2023-03-11T04:18:53.696Z,16.60
2023-03-11T04:25:03.632Z,18.90
2023-03-11T04:28:08.706Z,16.50
2023-03-11T04:31:13.354Z,17.30
2023-03-11T04:34:17.489Z,18.60
2023-03-11T04:37:21.670Z,18.30
2023-03-11T04:40:25.939Z,19.50
2023-03-11T04:43:30.917Z,15.60
2023-03-11T04:46:35.003Z,15.50
2023-03-11T04:52:44.916Z,16.60
2023-03-11T04:55:49.039Z,19.20
2023-03-11T04:58:53.158Z,16.90
2023-03-11T05:01:58.168Z,20.00
2023-03-11T05:05:02.223Z,18.40
2023-03-11T05:08:06.540Z,19.00
2023-03-11T05:11:11.353Z,19.50
2023-03-11T05:14:15.590Z,18.90
2023-03-11T05:17:20.020Z,16.10
2023-03-11T05:20:24.997Z,17.40
2023-03-11T05:23:29.668Z,17.60
2023-03-11T05:26:34.115Z,19.30
2023-03-11T05:29:39.222Z,17.10
2023-03-11T05:32:44.937Z,16.70
2023-03-11T05:35:52.015Z,14.90
2023-03-11T05:38:56.642Z,22.10
2023-03-11T05:42:01.162Z,17.90
2023-03-11T05:45:06.410Z,14.20
2023-03-11T05:48:11.130Z,15.30
2023-03-11T05:51:15.412Z,15.90
2023-03-11T05:54:21.128Z,13.40
2023-03-11T05:57:27.184Z,18.70
2023-03-11T06:03:38.955Z,14.20
2023-03-11T06:06:43.316Z,11.60
2023-03-11T06:09:50.511Z,13.50
2023-03-11T06:12:55.341Z,11.40
2023-03-11T06:16:13.021Z,9.80
2023-03-11T06:19:17.301Z,9.30
2023-03-11T06:22:24.797Z,8.80
2023-03-11T06:25:28.792Z,10.30
2023-03-11T06:28:33.574Z,9.40
2023-03-11T06:31:39.621Z,8.90
2023-03-11T06:34:50.562Z,7.20
2023-03-11T06:37:54.711Z,7.30
2023-03-11T06:41:00.684Z,7.80
2023-03-11T06:44:05.095Z,8.60
2023-03-11T06:47:10.426Z,7.30
2023-03-11T06:50:14.586Z,6.40
2023-03-11T06:53:18.538Z,8.60
2023-03-11T06:56:24.225Z,6.30
2023-03-11T06:59:41.054Z,8.30
2023-03-11T07:02:45.788Z,8.00
2023-03-11T07:05:51.939Z,9.80
2023-03-11T07:08:56.782Z,7.00
2023-03-11T07:12:00.855Z,7.20
2023-03-11T07:15:14.163Z,7.40
2023-03-11T07:18:18.660Z,6.50
2023-03-11T07:21:23.676Z,7.00
2023-03-11T07:24:27.724Z,5.60
2023-03-11T07:27:32.452Z,6.00
2023-03-11T07:30:39.199Z,6.00
2023-03-11T07:33:43.221Z,7.00
2023-03-11T07:36:47.258Z,5.50
2023-03-11T07:39:51.235Z,6.10
2023-03-11T07:42:55.194Z,6.00
2023-03-11T07:46:22.687Z,9.30
2023-03-11T07:49:26.731Z,6.40
2023-03-11T07:52:33.418Z,5.10
2023-03-11T07:55:37.362Z,5.00
2023-03-11T07:58:43.570Z,6.30
2023-03-11T08:01:50.671Z,5.90
2023-03-11T08:04:56.338Z,5.70
2023-03-11T08:08:00.288Z,6.90
2023-03-11T08:11:04.625Z,6.40
2023-03-11T08:14:09.021Z,4.70
2023-03-11T08:17:13.179Z,7.00
2023-03-11T08:20:17.585Z,6.20
2023-03-11T08:23:21.505Z,5.40
2023-03-11T08:26:25.677Z,6.00
2023-03-11T08:29:29.626Z,6.20
2023-03-11T08:32:33.928Z,5.40
2023-03-11T08:35:38.104Z,7.10
2023-03-11T08:38:42.514Z,10.00
2023-03-11T08:41:46.507Z,10.50
2023-03-11T08:44:50.726Z,12.10
2023-03-11T08:47:54.741Z,10.20
2023-03-11T08:50:59.275Z,10.20
2023-03-11T08:57:07.715Z,10.00
2023-03-11T09:00:13.433Z,10.80
2023-03-11T09:03:18.096Z,9.60
2023-03-11T09:06:22.180Z,10.80
2023-03-11T09:09:26.229Z,12.40
2023-03-11T09:12:30.657Z,10.20
2023-03-11T09:15:34.976Z,8.70
2023-03-11T09:18:38.998Z,10.40
2023-03-11T09:21:42.946Z,11.70
2023-03-11T09:24:46.918Z,10.00
2023-03-11T09:27:50.937Z,8.30
2023-03-11T09:30:55.064Z,10.50
2023-03-11T09:33:59.077Z,7.20
2023-03-11T09:37:03.019Z,10.30
2023-03-11T09:40:08.390Z,7.90
2023-03-11T09:43:21.260Z,8.40
2023-03-11T09:46:37.329Z,7.90
2023-03-11T09:50:07.846Z,8.10
2023-03-11T09:53:35.052Z,6.80
2023-03-11T09:56:44.034Z,9.80
2023-03-11T09:59:49.354Z,12.10
2023-03-11T10:02:53.855Z,14.30
2023-03-11T10:06:13.542Z,15.00
2023-03-11T10:09:40.727Z,18.80
2023-03-11T10:12:50.463Z,19.50
2023-03-11T10:15:57.185Z,18.00
2023-03-11T10:19:23.492Z,17.40
2023-03-11T10:22:36.376Z,16.00
2023-03-11T10:25:56.791Z,16.00
2023-03-11T10:29:28.968Z,14.80
2023-03-11T10:32:50.014Z,12.90
2023-03-11T10:35:56.894Z,11.90
2023-03-11T10:39:02.407Z,13.90
2023-03-11T10:42:13.722Z,6.50
2023-03-11T10:45:20.589Z,9.10
2023-03-11T10:48:26.567Z,7.40
2023-03-11T10:51:35.075Z,7.40
2023-03-11T10:54:46.115Z,4.80
2023-03-11T10:57:50.151Z,4.50
2023-03-11T11:01:21.860Z,7.30
2023-03-11T11:04:35.465Z,4.60
2023-03-11T11:07:42.463Z,8.10
2023-03-11T11:10:58.658Z,6.80
2023-03-11T11:14:02.708Z,11.70
2023-03-11T11:17:14.138Z,8.80
2023-03-11T11:20:19.877Z,9.00
2023-03-11T11:23:33.073Z,8.60
2023-03-11T11:26:37.156Z,8.80
2023-03-11T11:29:41.754Z,8.00
2023-03-11T11:32:45.873Z,5.80
2023-03-11T11:35:54.210Z,7.80
2023-03-11T11:39:03.375Z,7.20
2023-03-11T11:42:12.510Z,6.20
2023-03-11T11:45:37.942Z,9.50
2023-03-11T11:49:00.987Z,7.10
2023-03-11T11:52:22.814Z,10.60
2023-03-11T11:55:30.652Z,7.80
2023-03-11T11:58:35.627Z,5.90
2023-03-11T12:01:50.008Z,6.40
2023-03-11T12:05:12.632Z,8.00
2023-03-11T12:08:28.642Z,6.70
2023-03-11T12:11:46.413Z,5.80
2023-03-11T12:15:14.801Z,7.80
2023-03-11T12:18:26.827Z,7.40
2023-03-11T12:21:39.622Z,7.00
2023-03-11T12:24:49.257Z,5.30
2023-03-11T12:28:17.940Z,5.30
2023-03-11T12:31:24.910Z,10.80
2023-03-11T12:34:31.435Z,7.50
2023-03-11T12:37:35.504Z,11.00
2023-03-11T12:40:42.169Z,8.50
2023-03-11T12:43:47.311Z,9.80
2023-03-11T12:46:54.150Z,7.30
2023-03-11T12:50:35.936Z,8.30
2023-03-11T12:53:48.613Z,8.10
2023-03-11T12:56:58.521Z,8.40
2023-03-11T13:00:30.803Z,8.80
2023-03-11T13:03:46.886Z,8.20
2023-03-11T13:07:12.918Z,9.30
2023-03-11T13:10:21.463Z,9.10
2023-03-11T13:13:25.480Z,11.30
2023-03-11T13:16:29.409Z,7.60
2023-03-11T13:19:36.277Z,8.90
2023-03-11T13:22:45.018Z,5.60
2023-03-11T13:25:51.542Z,7.90
2023-03-11T13:29:21.526Z,11.10
2023-03-11T13:33:12.208Z,9.70
2023-03-11T13:36:34.866Z,5.90
2023-03-11T13:39:45.336Z,9.50
2023-03-11T13:42:51.803Z,10.60
2023-03-11T13:46:07.473Z,9.70
2023-03-11T13:49:40.249Z,8.70
2023-03-11T13:52:49.217Z,9.00
2023-03-11T13:55:53.238Z,11.30
2023-03-11T13:59:27.795Z,10.20
2023-03-11T14:02:31.985Z,9.30
2023-03-11T14:08:42.972Z,7.10
2023-03-11T14:11:49.037Z,10.30
2023-03-11T14:15:04.345Z,5.50
2023-03-11T14:18:37.008Z,9.90
2023-03-11T14:21:45.425Z,8.80
2023-03-11T14:24:49.653Z,11.50
2023-03-11T14:28:02.665Z,11.30
2023-03-11T14:31:06.892Z,11.30
2023-03-11T14:34:10.927Z,9.40
2023-03-11T14:37:33.010Z,9.30
2023-03-11T14:40:42.103Z,9.30
2023-03-11T14:43:50.407Z,9.20
2023-03-11T14:47:18.977Z,12.50
2023-03-11T14:50:25.797Z,5.90
2023-03-11T14:53:35.593Z,7.70
2023-03-11T14:56:44.984Z,9.00
2023-03-11T14:59:51.238Z,7.80
2023-03-11T15:03:17.089Z,8.30
2023-03-11T15:06:26.399Z,9.00
2023-03-11T15:09:31.739Z,6.30
2023-03-11T15:12:46.673Z,7.70
2023-03-11T15:16:01.060Z,7.30
2023-03-11T15:19:30.326Z,11.80
2023-03-11T15:22:38.052Z,5.10
2023-03-11T15:25:50.142Z,7.90
2023-03-11T15:29:06.602Z,9.60
2023-03-11T15:32:29.250Z,8.40
2023-03-11T15:39:07.097Z,8.50
2023-03-11T15:42:29.328Z,7.20
2023-03-11T15:45:33.268Z,6.30
2023-03-11T15:48:37.216Z,10.70
2023-03-11T15:51:41.193Z,8.30
2023-03-11T15:54:55.207Z,9.20
2023-03-11T15:58:08.050Z,9.30
2023-03-11T16:01:11.980Z,7.50
2023-03-11T16:04:18.479Z,9.80
2023-03-11T16:07:36.809Z,8.60
2023-03-11T16:10:43.113Z,10.30
2023-03-11T16:13:47.124Z,12.50
2023-03-11T16:16:51.068Z,9.70
2023-03-11T16:19:54.978Z,7.70
2023-03-11T16:23:01.394Z,9.30
2023-03-11T16:26:05.990Z,6.80
2023-03-11T16:29:19.090Z,7.60
2023-03-11T16:32:23.925Z,7.50
2023-03-11T16:35:28.015Z,6.20
2023-03-11T16:38:42.753Z,7.20
2023-03-11T16:41:46.726Z,5.50
2023-03-11T16:44:50.991Z,6.50
2023-03-11T16:47:54.995Z,8.70
2023-03-11T16:50:59.125Z,7.20
2023-03-11T16:54:03.131Z,8.00
2023-03-11T16:57:07.147Z,6.50
2023-03-11T17:00:13.127Z,7.10
2023-03-11T17:03:21.607Z,8.60
2023-03-11T17:06:25.937Z,7.00
2023-03-11T17:09:29.853Z,7.00
2023-03-11T17:12:33.849Z,8.70
2023-03-11T17:15:38.790Z,8.10
2023-03-11T17:21:46.858Z,9.10
2023-03-11T17:24:50.908Z,9.10
2023-03-11T17:27:55.091Z,10.70
2023-03-11T17:31:00.313Z,9.00
2023-03-11T17:34:04.352Z,8.80
2023-03-11T17:37:09.085Z,6.70
2023-03-11T17:40:13.098Z,7.40
2023-03-11T17:43:17.078Z,7.10
2023-03-11T17:46:22.592Z,5.70
2023-03-11T17:49:26.843Z,5.60
2023-03-11T17:52:30.818Z,6.40
2023-03-11T17:55:38.292Z,6.60
2023-03-11T17:58:42.599Z,6.30
2023-03-11T18:01:46.654Z,7.90
2023-03-11T18:04:53.982Z,8.20
2023-03-11T18:07:58.821Z,7.10
2023-03-11T18:14:10.557Z,8.10
2023-03-11T18:17:15.821Z,9.30
2023-03-11T18:20:20.860Z,4.80
2023-03-11T18:23:24.875Z,7.60
2023-03-11T18:26:30.054Z,8.20
2023-03-11T18:29:34.031Z,6.60
2023-03-11T18:32:38.044Z,6.60
2023-03-11T18:35:42.380Z,8.40
2023-03-11T18:38:47.637Z,7.20
2023-03-11T18:41:51.557Z,5.70
2023-03-11T18:44:55.535Z,7.10
2023-03-11T18:47:59.562Z,7.00
2023-03-11T18:51:03.943Z,6.10
2023-03-11T18:54:08.602Z,5.80
2023-03-11T18:57:12.654Z,7.40
2023-03-11T19:00:22.488Z,6.80
2023-03-11T19:03:26.399Z,6.80
2023-03-11T19:06:30.522Z,5.80
2023-03-11T19:09:34.740Z,5.40
2023-03-11T19:12:40.085Z,5.20
2023-03-11T19:15:43.984Z,8.40
2023-03-11T19:18:48.541Z,6.20
2023-03-11T19:21:52.546Z,8.60
2023-03-11T19:24:56.450Z,9.00
2023-03-11T19:28:01.045Z,7.80
2023-03-11T19:31:05.831Z,7.30
2023-03-11T19:34:10.050Z,6.10
2023-03-11T19:37:14.264Z,6.20
2023-03-11T19:40:18.485Z,8.50
2023-03-11T19:43:23.887Z,8.00
2023-03-11T19:46:29.519Z,7.50
2023-03-11T19:49:33.822Z,5.30
2023-03-11T19:52:37.900Z,5.40
2023-03-11T19:55:46.473Z,4.50
2023-03-11T19:58:50.481Z,5.20
2023-03-11T20:01:54.484Z,5.70
2023-03-11T20:04:58.539Z,6.00
2023-03-11T20:08:03.997Z,6.00
2023-03-11T20:11:08.298Z,6.60
2023-03-11T20:14:13.260Z,7.60
2023-03-11T20:17:17.627Z,7.40
2023-03-11T20:20:21.859Z,11.70
2023-03-11T20:23:26.021Z,8.30
2023-03-11T20:26:30.133Z,7.90
2023-03-11T20:29:34.129Z,8.20
2023-03-11T20:32:38.350Z,9.90
2023-03-11T20:35:42.504Z,8.30
2023-03-11T20:38:51.519Z,9.90
2023-03-11T20:41:55.590Z,7.90
2023-03-11T20:44:59.626Z,7.30
2023-03-11T20:48:03.847Z,9.40
2023-03-11T20:51:12.103Z,9.90
2023-03-11T20:54:16.878Z,5.60
2023-03-11T20:57:20.887Z,10.20
2023-03-11T21:00:24.947Z,10.80
2023-03-11T21:03:29.099Z,8.70
2023-03-11T21:06:37.747Z,9.20
2023-03-11T21:09:42.102Z,8.70
2023-03-11T21:12:46.209Z,10.70
2023-03-11T21:15:53.858Z,9.60
2023-03-11T21:18:57.977Z,10.20
2023-03-11T21:22:02.052Z,8.90
2023-03-11T21:25:08.643Z,8.50
2023-03-11T21:28:14.062Z,11.30
2023-03-11T21:31:26.492Z,14.00
2023-03-11T21:34:31.898Z,12.80
2023-03-11T21:37:36.017Z,12.60
2023-03-11T21:40:40.211Z,14.90
2023-03-11T21:43:44.606Z,13.80
2023-03-11T21:46:48.727Z,9.80
2023-03-11T21:49:52.715Z,9.50
2023-03-11T21:52:56.952Z,10.60
2023-03-11T21:56:03.789Z,11.80
2023-03-11T21:59:08.581Z,10.00
2023-03-11T22:02:17.269Z,15.10
2023-03-11T22:05:21.404Z,12.50
2023-03-11T22:08:27.122Z,10.90
2023-03-11T22:11:31.614Z,10.00
2023-03-11T22:14:35.931Z,12.60
2023-03-11T22:17:40.191Z,11.80
2023-03-11T22:20:44.703Z,12.10
2023-03-11T22:23:49.238Z,9.20
2023-03-11T22:26:53.286Z,12.40
2023-03-11T22:29:57.304Z,11.40
2023-03-11T22:33:01.228Z,11.30
2023-03-11T22:36:07.702Z,11.30
2023-03-11T22:39:11.822Z,11.50
2023-03-11T22:42:15.809Z,9.90
2023-03-11T22:45:22.305Z,12.50
2023-03-11T22:48:26.331Z,11.70
2023-03-11T22:51:30.336Z,7.70
2023-03-11T22:54:34.410Z,8.50
2023-03-11T22:57:39.115Z,11.80
2023-03-11T23:00:44.248Z,11.20
2023-03-11T23:03:48.444Z,8.20
2023-03-11T23:06:54.619Z,11.50
2023-03-11T23:09:58.623Z,7.60
2023-03-11T23:13:02.663Z,8.40
2023-03-11T23:16:26.307Z,9.30
2023-03-11T23:19:30.437Z,9.60
2023-03-11T23:22:39.536Z,10.00
2023-03-11T23:25:43.508Z,18.00
2023-03-11T23:28:49.344Z,14.30
2023-03-11T23:31:53.247Z,8.70
2023-03-11T23:34:57.153Z,12.00
2023-03-11T23:38:01.280Z,9.00
2023-03-11T23:41:09.873Z,9.80
2023-03-11T23:44:14.441Z,10.00
2023-03-11T23:47:18.558Z,9.80
2023-03-11T23:50:22.573Z,10.40
2023-03-11T23:53:27.407Z,12.60
2023-03-11T23:56:31.372Z,13.10
2023-03-11T23:59:35.841Z,12.90
